Latest Coastal Weather Observations for Alva Beach

IDQ60701

Issued at 11:52 pm EST Saturday 28 February 2015 (issued every 10 minutes, with the page automatically refreshed every 10 minutes)

About coastal observations | Map of coastal stations | Coastal observations for QLD | Marine services | Other Formats
Station Details ID: 033295 Name: ALVA BEACH Lat: -19.46 Lon: 147.48 Height: 7.5 m
Data from the previous 72 hours. | See also: Recent months at Alva Beach
Date/Time
EST
Temp

°C
Wind Pressure Rain
since 9am
mm
Weather Cloud Vis
km
Sea
Height
m
Swell
Dir
 
Speed
knots
Gust
knots
hPa Trend Height
m
Period
s
Dir
28/11:30pm 27.9 NE 9 13 1009.4 - 0.0 - - - - - - -
28/11:00pm 27.9 NE 10 12 1009.3 - 0.0 - - - - - - -
28/10:30pm 27.9 NE 10 12 1009.3 - 0.0 - - - - - - -
28/10:00pm 27.9 NE 11 14 1009.4 - 0.0 - - - - - - -
28/09:30pm 28.1 NE 12 15 1009.0 - 0.0 - - - - - - -
28/09:00pm 28.1 ENE 13 15 1008.5 - 0.0 - - - - - - -
28/08:30pm 28.0 NE 14 17 1008.0 - 0.0 - - - - - - -
28/08:00pm 28.1 NE 15 17 1007.7 - 0.0 - - - - - - -
28/07:30pm 28.2 NE 14 17 1007.3 - 0.0 - - - - - - -
28/07:00pm 28.2 NE 12 14 1007.3 - 0.0 - - - - - - -
28/06:30pm 28.3 ENE 13 16 1007.2 - 0.0 - - - - - - -
28/06:00pm 28.6 NE 13 15 1006.9 - 0.0 - - - - - - -
28/05:30pm 29.0 NE 14 17 1006.6 - 0.0 - - - - - - -
28/05:00pm 29.1 NE 15 17 1006.1 - 0.0 - - - - - - -
28/04:30pm 29.5 NE 14 17 1006.3 - 0.0 - - - - - - -
28/04:00pm 30.1 ENE 14 17 1006.0 - 0.0 - - - - - - -
28/03:30pm 30.2 ENE 15 17 1006.0 - 0.0 - - - - - - -
28/03:00pm 30.6 NE 14 17 1006.1 - 0.0 - - - - - - -
28/02:30pm 30.3 NE 14 17 1006.1 - 0.0 - - - - - - -
28/02:00pm 30.6 NE 13 15 1006.6 - 0.0 - - - - - - -
28/01:30pm 31.0 NE 12 15 1006.9 - 0.0 - - - - - - -
28/01:00pm 31.0 ENE 11 14 1007.5 - 0.0 - - - - - - -
28/12:30pm 31.1 ENE 11 13 1007.7 - 0.0 - - - - - - -
28/12:00pm 30.7 ENE 10 12 1007.9 - 0.0 - - - - - - -
28/11:30am 30.5 ENE 10 12 1008.1 - 0.0 - - - - - - -
28/11:00am 30.9 ENE 9 12 1008.3 - 0.0 - - - - - - -
28/10:30am 30.4 ENE 8 11 1008.2 - 0.0 - - - - - - -
28/10:00am 30.6 ENE 8 10 1008.1 - 0.0 - - - - - - -
28/09:30am 30.3 ENE 7 8 1008.0 - 0.0 - - - - - - -
28/09:00am 30.1 ENE 6 8 1008.0 - 0.0 - - - - - - -
28/08:30am 29.5 NE 5 7 1008.0 - 0.0 - - - - - - -
28/08:00am 29.5 NE 5 7 1007.8 - 0.0 - - - - - - -
28/07:30am 29.0 NE 6 7 1007.6 - 0.0 - - - - - - -
28/07:00am 28.2 NE 6 8 1007.2 - 0.0 - - - - - - -
28/06:30am 27.8 NE 6 8 1006.9 - 0.0 - - - - - - -
28/06:00am 27.8 NE 7 9 1006.8 - 0.0 - - - - - - -
28/05:30am 27.7 NE 7 9 1006.6 - 0.0 - - - - - - -
28/05:00am 27.6 NE 7 8 1006.4 - 0.0 - - - - - - -
28/04:30am 27.7 NNE 6 8 1006.6 - 0.0 - - - - - - -
28/04:00am 27.6 NNE 7 9 1006.5 - 0.0 - - - - - - -
28/03:30am 27.0 NNE 6 8 1006.2 - 0.0 - - - - - - -
28/03:00am 27.2 N 5 8 1006.4 - 0.0 - - - - - - -
28/02:30am 27.3 NNE 9 11 1006.6 - 0.0 - - - - - - -
28/02:00am 27.4 NNE 10 12 1006.7 - 0.0 - - - - - - -
28/01:30am 27.6 NE 9 12 1007.3 - 0.0 - - - - - - -
28/01:00am 27.6 NE 7 9 1007.8 - 0.0 - - - - - - -
28/12:30am 27.7 NE 9 11 1008.0 - 0.0 - - - - - - -
28/12:00am 27.6 - 5 10 1008.8 - 0.0 - - - - - - -
 
Date/Time
EST
Temp

°C
Wind Pressure Rain
since 9am
mm
Weather Cloud Vis
km
Sea
Height
m
Swell
Dir
 
Speed
knots
Gust
knots
hPa Trend Height
m
Period
s
Dir
27/11:30pm 27.6 NNE 10 13 1007.8 - 0.0 - - - - - - -
27/11:00pm 27.7 ENE 8 10 1008.7 - 0.0 - - - - - - -
27/10:30pm 27.8 NE 11 13 1008.5 - 0.0 - - - - - - -
27/10:00pm 27.8 NE 9 11 1008.8 - 0.0 - - - - - - -
27/09:30pm 27.9 NE 10 12 1008.3 - 0.0 - - - - - - -
27/09:00pm 28.3 NE 10 13 1007.7 - 0.0 - - - - - - -
27/08:30pm 28.4 NE 11 13 1006.9 - 0.0 - - - - - - -
27/08:00pm 28.5 NE 12 14 1007.0 - 0.0 - - - - - - -
27/07:30pm 28.7 NE 10 13 1007.0 - 0.0 - - - - - - -
27/07:00pm 28.7 NE 11 13 1006.0 - 0.0 - - - - - - -
27/06:30pm 28.9 NE 12 15 1005.4 - 0.0 - - - - - - -
27/06:00pm 28.9 NNE 11 14 1005.4 - 0.0 - - - - - - -
27/05:30pm 29.0 NE 13 16 1005.0 - 0.0 - - - - - - -
27/05:00pm 29.1 NE 13 15 1004.3 - 0.0 - - - - - - -
27/04:30pm 29.6 NE 12 14 1004.7 - 0.0 - - - - - - -
27/04:00pm 29.8 NE 13 15 1004.3 - 0.0 - - - - - - -
27/03:30pm 30.2 NNE 11 13 1004.8 - 0.0 - - - - - - -
27/03:00pm 30.5 NNE 10 13 1005.4 - 0.0 - - - - - - -
27/02:30pm 30.5 NNE 11 13 1005.5 - 0.0 - - - - - - -
27/02:00pm 30.9 NNE 11 13 1005.8 - 0.0 - - - - - - -
27/01:30pm 31.7 NNE 10 12 1006.2 - 0.0 - - - - - - -
27/01:00pm 30.9 NNE 10 12 1006.5 - 0.0 - - - - - - -
27/12:30pm 30.5 NNE 9 11 1007.0 - 0.0 - - - - - - -
27/12:00pm 30.1 NNE 8 10 1007.3 - 0.0 - - - - - - -
27/11:30am 30.5 NNE 9 10 1007.6 - 0.0 - - - - - - -
27/11:00am 30.4 NE 8 10 1007.8 - 0.0 - - - - - - -
27/10:30am 29.9 NNE 8 10 1007.9 - 0.0 - - - - - - -
27/10:00am 29.6 NE 8 10 1007.8 - 0.0 - - - - - - -
27/09:30am 30.0 NNE 7 9 1008.0 - 0.0 - - - - - - -
27/09:00am 30.1 ENE 6 7 1008.0 - 0.0 - - - - - - -
27/08:30am 29.7 NNE 5 7 1007.9 - 0.0 - - - - - - -
27/08:00am 28.9 NE 6 8 1007.6 - 0.0 - - - - - - -
27/07:30am 28.8 NE 7 9 1007.2 - 0.0 - - - - - - -
27/07:00am 28.3 NNE 7 9 1007.0 - 0.0 - - - - - - -
27/06:30am 27.9 NE 8 10 1006.8 - 0.0 - - - - - - -
27/06:00am 27.5 NNE 9 11 1006.5 - 0.0 - - - - - - -
27/05:30am 27.6 NNE 7 9 1006.5 - 0.0 - - - - - - -
27/05:00am 27.6 NE 9 11 1006.1 - 0.0 - - - - - - -
27/04:30am 27.4 NNE 9 11 1006.0 - 0.0 - - - - - - -
27/04:00am 27.6 NE 11 13 1005.9 - 0.0 - - - - - - -
27/03:30am 27.5 NE 9 11 1006.2 - 0.0 - - - - - - -
27/03:00am 27.5 NE 8 10 1006.4 - 0.0 - - - - - - -
27/02:30am 27.5 NE 9 10 1006.4 - 0.0 - - - - - - -
27/02:00am 27.6 NE 9 11 1006.6 - 0.0 - - - - - - -
27/01:30am 27.7 NE 9 12 1007.0 - 0.0 - - - - - - -
27/01:00am 27.6 NE 9 11 1007.2 - 0.0 - - - - - - -
27/12:30am 27.5 NE 10 13 1007.5 - 0.0 - - - - - - -
27/12:00am 27.6 NE 13 15 1007.7 - 0.0 - - - - - - -
 
Date/Time
EST
Temp

°C
Wind Pressure Rain
since 9am
mm
Weather Cloud Vis
km
Sea
Height
m
Swell
Dir
 
Speed
knots
Gust
knots
hPa Trend Height
m
Period
s
Dir
26/11:30pm 27.7 NE 12 15 1007.9 - 0.0 - - - - - - -
26/11:00pm 27.8 ENE 12 14 1008.0 - 0.0 - - - - - - -
26/10:30pm 27.9 ENE 11 15 1008.0 - 0.0 - - - - - - -
26/10:00pm 27.9 ENE 12 14 1007.6 - 0.0 - - - - - - -
26/09:30pm 27.9 ENE 13 15 1007.2 - 0.0 - - - - - - -
26/09:00pm 28.2 ENE 12 14 1007.0 - 0.0 - - - - - - -
26/08:30pm 28.1 ENE 12 14 1006.6 - 0.0 - - - - - - -
26/08:00pm 28.1 NE 13 15 1006.3 - 0.0 - - - - - - -
26/07:30pm 28.4 NE 11 14 1005.9 - 0.0 - - - - - - -
26/07:00pm 28.4 ENE 12 14 1005.6 - 0.0 - - - - - - -
26/06:30pm 28.5 NE 12 14 1005.5 - 0.0 - - - - - - -
26/06:00pm 28.9 NE 12 14 1005.0 - 0.0 - - - - - - -
26/05:30pm 29.0 NE 12 14 1004.9 - 0.0 - - - - - - -
26/05:00pm 29.5 NE 11 14 1004.5 - 0.0 - - - - - - -
26/04:30pm 29.5 NE 11 14 1004.4 - 0.0 - - - - - - -
26/04:00pm 29.9 NE 10 13 1004.4 - 0.0 - - - - - - -
26/03:30pm 30.4 NE 10 13 1004.6 - 0.0 - - - - - - -
26/03:00pm 29.8 NE 12 14 1004.7 - 0.0 - - - - - - -
26/02:30pm 30.2 NE 10 13 1005.2 - 0.0 - - - - - - -
26/02:00pm 31.0 NE 12 15 1005.6 - 0.0 - - - - - - -
26/01:30pm 31.0 ENE 10 13 1006.0 - 0.0 - - - - - - -
26/01:00pm 30.5 ENE 9 12 1006.6 - 0.0 - - - - - - -
26/12:30pm 30.5 E 9 11 1007.2 - 0.0 - - - - - - -
26/12:00pm 30.5 E 7 10 1007.7 - 0.0 - - - - - - -
26/11:30am 31.1 E 6 9 1008.1 - 0.0 - - - - - - -
26/11:00am 32.1 ESE 7 11 1008.4 - 0.0 - - - - - - -
26/10:30am 31.9 ESE 6 9 1008.6 - 0.0 - - - - - - -
26/10:00am 31.5 ESE 5 9 1008.9 - 0.0 - - - - - - -
26/09:30am 30.5 SSE 4 7 1009.0 - 0.0 - - - - - - -
26/09:00am 29.1 S 5 8 1008.8 - 0.0 - - - - - - -
26/08:30am 28.9 S 5 9 1008.9 - 0.0 - - - - - - -
26/08:00am 27.2 S 7 9 1009.0 - 0.0 - - - - - - -
26/07:30am 26.0 SSW 6 9 1008.9 - 0.0 - - - - - - -
26/07:00am 25.1 SSW 5 6 1008.2 - 0.0 - - - - - - -
26/06:30am 24.1 SSW 4 5 1008.0 - 0.0 - - - - - - -
26/06:00am 24.3 SW 3 5 1007.6 - 0.0 - - - - - - -
26/05:30am 24.7 SSW 3 5 1007.4 - 0.0 - - - - - - -
26/05:00am 26.0 SSE 1 7 1007.3 - 0.0 - - - - - - -
26/04:30am 27.3 E 7 11 1007.1 - 0.0 - - - - - - -
26/04:00am 27.5 E 7 11 1007.1 - 0.0 - - - - - - -
26/03:30am 27.4 ESE 6 9 1007.1 - 0.0 - - - - - - -
26/03:00am 27.7 E 7 11 1007.2 - 0.0 - - - - - - -
26/02:30am 27.5 E 9 11 1007.2 - 0.0 - - - - - - -
26/02:00am 27.8 E 9 13 1007.2 - 0.0 - - - - - - -
26/01:30am 28.0 E 11 16 1007.2 - 0.0 - - - - - - -
26/01:00am 28.0 ENE 12 15 1007.3 - 0.0 - - - - - - -
26/12:30am 28.0 ENE 11 15 1007.8 - 0.0 - - - - - - -
26/12:00am 28.0 ENE 13 16 1007.9 - 0.0 - - - - - - -

Other Formats:

Comma delimited format used in spreadsheet applications
http://www.bom.gov.au/fwo/IDQ60701/IDQ60701.95296.axf

JavaScript Object Notation format (JSON) in row-major order
http://www.bom.gov.au/fwo/IDQ60701/IDQ60701.95296.json